createdAt,value
2022-09-01T00:00:05.847Z,89.30
2022-09-01T00:01:06.165Z,89.26
2022-09-01T00:02:07.462Z,89.26
2022-09-01T00:03:10.634Z,89.40
2022-09-01T00:04:07.088Z,89.51
2022-09-01T00:05:07.365Z,89.20
2022-09-01T00:06:07.672Z,89.40
2022-09-01T00:07:07.978Z,89.51
2022-09-01T00:08:11.235Z,89.71
2022-09-01T00:09:09.605Z,89.71
2022-09-01T00:10:08.838Z,89.71
2022-09-01T00:11:11.030Z,89.71
2022-09-01T00:12:09.403Z,89.81
2022-09-01T00:13:13.565Z,89.92
2022-09-01T00:14:29.579Z,90.01
2022-09-01T00:15:11.312Z,89.92
2022-09-01T00:16:10.599Z,89.61
2022-09-01T00:17:10.793Z,89.71
2022-09-01T00:18:13.087Z,89.61
2022-09-01T00:19:11.863Z,89.51
2022-09-01T00:20:11.963Z,89.40
2022-09-01T00:21:11.946Z,89.40
2022-09-01T00:22:12.252Z,89.20
2022-09-01T00:23:15.427Z,89.14
2022-09-01T00:24:12.835Z,89.34
2022-09-01T00:25:13.143Z,89.75
2022-09-01T00:26:13.457Z,89.75
2022-09-01T00:27:13.767Z,89.75
2022-09-01T00:28:14.945Z,90.16
2022-09-01T00:29:16.293Z,90.06
2022-09-01T00:30:14.555Z,90.06
2022-09-01T00:31:14.928Z,90.26
2022-09-01T00:32:15.124Z,90.67
2022-09-01T00:33:16.258Z,90.57
2022-09-01T00:34:17.636Z,91.18
2022-09-01T00:35:16.014Z,91.18
2022-09-01T00:36:16.336Z,90.77
2022-09-01T00:37:19.947Z,90.77
2022-09-01T00:38:20.167Z,90.77
2022-09-01T00:39:19.779Z,90.88
2022-09-01T00:40:18.483Z,91.08
2022-09-01T00:41:18.819Z,91.08
2022-09-01T00:42:18.976Z,90.88
2022-09-01T00:43:20.417Z,90.92
2022-09-01T00:44:18.825Z,91.12
2022-09-01T00:45:19.969Z,91.22
2022-09-01T00:46:20.508Z,91.33
2022-09-01T00:47:19.734Z,91.39
2022-09-01T00:48:21.913Z,91.08
2022-09-01T00:49:23.061Z,91.33
2022-09-01T00:50:20.571Z,91.22
2022-09-01T00:51:21.700Z,91.02
2022-09-01T00:52:22.115Z,91.02
2022-09-01T00:53:23.450Z,91.12
2022-09-01T00:54:23.626Z,90.92
2022-09-01T00:55:23.113Z,90.92
2022-09-01T00:56:23.266Z,91.22
2022-09-01T00:57:23.681Z,91.22
2022-09-01T00:58:23.169Z,91.02
2022-09-01T00:59:25.239Z,91.12
2022-09-01T01:00:25.404Z,91.06
2022-09-01T01:01:23.927Z,91.43
2022-09-01T01:02:24.339Z,91.57
2022-09-01T01:03:24.483Z,91.67
2022-09-01T01:04:26.662Z,91.78
2022-09-01T01:05:25.857Z,92.19
2022-09-01T01:06:25.354Z,92.19
2022-09-01T01:07:26.675Z,92.29
2022-09-01T01:08:27.829Z,92.19
2022-09-01T01:09:27.993Z,91.98
2022-09-01T01:10:28.179Z,91.37
2022-09-01T01:11:28.349Z,91.37
2022-09-01T01:12:29.009Z,90.86
2022-09-01T01:13:29.178Z,90.70
2022-09-01T01:14:29.329Z,90.59
2022-09-01T01:15:29.687Z,90.90
2022-09-01T01:16:30.245Z,91.05
2022-09-01T01:17:30.404Z,91.15
2022-09-01T01:18:30.589Z,90.94
2022-09-01T01:19:30.782Z,90.84
2022-09-01T01:20:32.483Z,90.88
2022-09-01T01:21:31.364Z,90.88
2022-09-01T01:22:32.034Z,91.09
2022-09-01T01:23:32.182Z,91.03
2022-09-01T01:24:32.379Z,91.23
2022-09-01T01:25:32.563Z,91.03
2022-09-01T01:26:33.265Z,91.13
2022-09-01T01:27:33.601Z,91.13
2022-09-01T01:28:33.672Z,91.23
2022-09-01T01:29:33.859Z,91.58
2022-09-01T01:30:34.126Z,91.78
2022-09-01T01:31:34.734Z,93.07
2022-09-01T01:32:33.989Z,93.48
2022-09-01T01:33:35.202Z,93.38
2022-09-01T01:34:35.383Z,93.89
2022-09-01T01:35:35.592Z,94.20
2022-09-01T01:36:35.774Z,94.20
2022-09-01T01:37:35.205Z,93.89
2022-09-01T01:38:36.658Z,93.48
2022-09-01T01:39:35.057Z,93.59
2022-09-01T01:40:35.420Z,93.85
2022-09-01T01:41:37.554Z,94.06
2022-09-01T01:42:38.919Z,93.74
2022-09-01T01:43:36.206Z,93.95
2022-09-01T01:44:36.519Z,93.54
2022-09-01T01:45:36.875Z,93.48
2022-09-01T01:46:40.979Z,93.38
2022-09-01T01:47:38.337Z,92.97
2022-09-01T01:48:37.718Z,93.79
2022-09-01T01:49:38.045Z,94.40
2022-09-01T01:50:38.348Z,94.71
2022-09-01T01:51:42.519Z,93.99
2022-09-01T01:52:41.890Z,93.52
2022-09-01T01:53:39.279Z,93.32
2022-09-01T01:54:39.576Z,93.52
2022-09-01T01:55:41.807Z,93.63
2022-09-01T01:56:41.948Z,93.52
2022-09-01T01:57:41.942Z,93.12
2022-09-01T01:58:40.690Z,92.65
2022-09-01T01:59:41.001Z,92.44
2022-09-01T02:00:41.307Z,92.44
2022-09-01T02:01:43.554Z,92.75
2022-09-01T02:02:45.759Z,93.37
2022-09-01T02:03:42.268Z,93.67
2022-09-01T02:04:42.576Z,93.67
2022-09-01T02:05:44.760Z,93.88
2022-09-01T02:06:44.949Z,93.98
2022-09-01T02:07:44.354Z,94.08
2022-09-01T02:08:45.715Z,94.12
2022-09-01T02:09:43.981Z,94.02
2022-09-01T02:10:44.287Z,94.08
2022-09-01T02:11:46.482Z,94.02
2022-09-01T02:12:48.634Z,94.18
2022-09-01T02:13:45.180Z,94.39
2022-09-01T02:14:45.489Z,94.70
2022-09-01T02:15:45.802Z,95.10
2022-09-01T02:16:48.090Z,95.31
2022-09-01T02:17:48.373Z,95.10
2022-09-01T02:18:46.633Z,95.21
2022-09-01T02:19:46.939Z,95.41
2022-09-01T02:20:47.250Z,95.82
2022-09-01T02:21:50.444Z,95.72
2022-09-01T02:22:51.164Z,95.47
2022-09-01T02:23:48.085Z,95.88
2022-09-01T02:24:49.384Z,96.19
2022-09-01T02:26:14.447Z,95.88
2022-09-01T02:26:49.998Z,96.08
2022-09-01T02:27:49.412Z,95.78
2022-09-01T02:28:54.677Z,95.78
2022-09-01T02:29:50.910Z,95.53
2022-09-01T02:30:52.190Z,95.17
2022-09-01T02:31:53.745Z,95.26
2022-09-01T02:32:53.736Z,95.53
2022-09-01T02:33:51.027Z,95.73
2022-09-01T02:34:54.636Z,95.63
2022-09-01T02:35:52.676Z,95.53
2022-09-01T02:36:51.920Z,94.96
2022-09-01T02:37:54.285Z,94.85
2022-09-01T02:38:56.740Z,94.85
2022-09-01T02:39:52.854Z,95.06
2022-09-01T02:40:53.985Z,95.17
2022-09-01T02:41:54.404Z,95.57
2022-09-01T02:42:56.877Z,95.78
2022-09-01T02:43:56.847Z,96.08
2022-09-01T02:44:55.399Z,96.29
2022-09-01T02:45:55.613Z,96.25
2022-09-01T02:46:55.713Z,96.25
2022-09-01T02:47:56.129Z,96.25
2022-09-01T02:48:57.481Z,96.04
2022-09-01T02:49:56.707Z,96.14
2022-09-01T02:50:56.073Z,96.14
2022-09-01T02:51:56.397Z,96.25
2022-09-01T02:53:03.353Z,96.04
2022-09-01T02:53:58.775Z,95.94
2022-09-01T02:54:58.938Z,95.84
2022-09-01T02:55:57.577Z,95.84
2022-09-01T02:56:57.916Z,95.63
2022-09-01T02:58:02.091Z,95.53
2022-09-01T02:59:00.313Z,95.73
2022-09-01T02:59:58.828Z,95.63
2022-09-01T03:01:01.024Z,95.53
2022-09-01T03:02:01.179Z,95.53
2022-09-01T03:03:02.630Z,95.43
2022-09-01T03:04:01.580Z,95.53
2022-09-01T03:05:00.425Z,95.73
2022-09-01T03:06:00.698Z,95.94
2022-09-01T03:07:00.879Z,95.94
2022-09-01T03:08:02.147Z,95.84
2022-09-01T03:09:03.500Z,95.73
2022-09-01T03:10:03.681Z,95.63
2022-09-01T03:11:03.875Z,95.94
2022-09-01T03:12:02.531Z,95.84
2022-09-01T03:13:06.712Z,95.59
2022-09-01T03:14:04.937Z,95.59
2022-09-01T03:15:05.133Z,95.59
2022-09-01T03:16:05.379Z,95.59
2022-09-01T03:17:05.511Z,95.28
2022-09-01T03:18:07.332Z,95.53
2022-09-01T03:19:06.380Z,95.89
2022-09-01T03:20:06.567Z,95.48
2022-09-01T03:21:06.761Z,95.48
2022-09-01T03:22:07.447Z,95.79
2022-09-01T03:23:08.910Z,95.59
2022-09-01T03:24:07.831Z,95.59
2022-09-01T03:25:06.469Z,95.79
2022-09-01T03:26:08.631Z,95.59
2022-09-01T03:27:07.018Z,95.73
2022-09-01T03:28:11.183Z,95.63
2022-09-01T03:29:09.413Z,95.63
2022-09-01T03:30:07.926Z,95.84
2022-09-01T03:31:10.114Z,95.63
2022-09-01T03:32:09.560Z,95.84
2022-09-01T03:33:11.783Z,95.63
2022-09-01T03:34:10.921Z,95.53
2022-09-01T03:35:11.101Z,95.53
2022-09-01T03:36:15.396Z,95.53
2022-09-01T03:37:10.863Z,95.63
2022-09-01T03:38:11.041Z,95.53
2022-09-01T03:39:16.502Z,95.73
2022-09-01T03:40:10.848Z,95.63
2022-09-01T03:41:11.120Z,96.04
2022-09-01T03:42:11.440Z,95.94
2022-09-01T03:43:12.610Z,96.04
2022-09-01T03:44:14.065Z,96.04
2022-09-01T03:45:12.336Z,96.04
2022-09-01T03:46:12.669Z,95.84
2022-09-01T03:47:12.956Z,95.84
2022-09-01T03:48:17.137Z,95.84
2022-09-01T03:49:15.584Z,95.73
2022-09-01T03:50:13.786Z,95.94
2022-09-01T03:51:17.947Z,96.14
2022-09-01T03:52:16.175Z,96.25
2022-09-01T03:53:17.551Z,96.14
2022-09-01T03:54:14.944Z,96.04
2022-09-01T03:55:17.149Z,96.14
2022-09-01T03:56:15.523Z,96.25
2022-09-01T03:57:17.715Z,96.55
2022-09-01T03:58:18.900Z,96.34
2022-09-01T03:59:16.423Z,96.25
2022-09-01T04:00:18.600Z,96.04
2022-09-01T04:01:17.145Z,96.04
2022-09-01T04:02:17.289Z,96.04
2022-09-01T04:03:18.368Z,95.78
2022-09-01T04:04:18.766Z,95.67
2022-09-01T04:05:19.957Z,95.78
2022-09-01T04:06:18.353Z,95.98
2022-09-01T04:07:19.374Z,95.98
2022-09-01T04:08:20.496Z,96.08
2022-09-01T04:09:19.277Z,95.98
2022-09-01T04:10:21.458Z,95.88
2022-09-01T04:11:21.646Z,95.67
2022-09-01T04:12:21.836Z,95.78
2022-09-01T04:13:20.488Z,95.57
2022-09-01T04:14:20.814Z,95.37
2022-09-01T04:15:24.468Z,95.37
2022-09-01T04:16:21.414Z,95.57
2022-09-01T04:17:24.680Z,95.57
2022-09-01T04:18:22.021Z,95.57
2022-09-01T04:19:24.087Z,95.57
2022-09-01T04:20:24.264Z,95.51
2022-09-01T04:21:22.811Z,95.82
2022-09-01T04:22:23.142Z,95.98
2022-09-01T04:23:23.485Z,95.98
2022-09-01T04:24:23.829Z,95.67
2022-09-01T04:25:26.019Z,95.72
2022-09-01T04:26:27.650Z,96.13
2022-09-01T04:27:24.711Z,96.33
2022-09-01T04:28:28.321Z,96.54
2022-09-01T04:29:26.370Z,96.49
2022-09-01T04:30:26.530Z,96.29
2022-09-01T04:31:29.378Z,96.39
2022-09-01T04:32:27.106Z,96.19
2022-09-01T04:33:29.921Z,96.29
2022-09-01T04:34:27.681Z,96.29
2022-09-01T04:35:27.089Z,96.03
2022-09-01T04:36:29.271Z,96.23
2022-09-01T04:37:27.679Z,96.49
2022-09-01T04:38:29.886Z,96.39
2022-09-01T04:39:30.074Z,96.08
2022-09-01T04:40:28.645Z,95.98
2022-09-01T04:41:28.951Z,96.39
2022-09-01T04:42:29.700Z,96.08
2022-09-01T04:43:29.593Z,96.29
2022-09-01T04:44:29.809Z,95.98
2022-09-01T04:45:32.057Z,95.98
2022-09-01T04:46:30.349Z,95.88
2022-09-01T04:47:35.425Z,95.82
2022-09-01T04:48:30.905Z,95.72
2022-09-01T04:49:33.092Z,95.82
2022-09-01T04:50:33.279Z,95.51
2022-09-01T04:51:33.470Z,95.31
2022-09-01T04:52:35.942Z,95.62
2022-09-01T04:53:32.272Z,95.62
2022-09-01T04:54:34.471Z,95.21
2022-09-01T04:55:32.776Z,95.51
2022-09-01T04:56:33.003Z,95.82
2022-09-01T04:57:34.177Z,96.03
2022-09-01T04:58:35.559Z,96.23
2022-09-01T04:59:34.760Z,96.13
2022-09-01T05:00:35.253Z,96.33
2022-09-01T05:01:34.533Z,96.54
2022-09-01T05:02:37.813Z,96.33
2022-09-01T05:03:36.960Z,96.54
2022-09-01T05:04:37.141Z,96.64
2022-09-01T05:05:37.342Z,96.44
2022-09-01T05:06:37.496Z,96.74
2022-09-01T05:07:38.190Z,96.64
2022-09-01T05:08:38.375Z,97.05
2022-09-01T05:09:38.570Z,97.21
2022-09-01T05:10:39.013Z,97.62
2022-09-01T05:11:39.403Z,97.52
2022-09-01T05:12:39.575Z,97.41
2022-09-01T05:13:38.002Z,97.37
2022-09-01T05:14:40.253Z,97.53
2022-09-01T05:15:38.576Z,96.83
2022-09-01T05:16:40.841Z,96.37
2022-09-01T05:17:39.138Z,95.77
2022-09-01T05:18:39.349Z,95.12
2022-09-01T05:19:39.587Z,93.90
2022-09-01T05:20:41.774Z,92.84
2022-09-01T05:21:40.076Z,91.74
2022-09-01T05:22:42.244Z,89.61
2022-09-01T05:23:40.582Z,88.75
2022-09-01T05:24:42.738Z,87.63
2022-09-01T05:25:42.927Z,86.68
2022-09-01T05:26:43.132Z,86.83
2022-09-01T05:27:41.698Z,85.98
2022-09-01T05:28:41.918Z,85.03
2022-09-01T05:29:42.157Z,83.98
2022-09-01T05:30:46.298Z,83.43
2022-09-01T05:31:42.705Z,82.78
2022-09-01T05:32:43.911Z,80.62
2022-09-01T05:33:43.206Z,79.71
2022-09-01T05:34:43.435Z,79.50
2022-09-01T05:35:45.623Z,79.40
2022-09-01T05:36:47.779Z,79.10
2022-09-01T05:37:46.010Z,78.89
2022-09-01T05:38:44.561Z,78.89
2022-09-01T05:39:44.799Z,78.89
2022-09-01T05:40:45.114Z,78.15
2022-09-01T05:41:46.340Z,78.11
2022-09-01T05:42:45.630Z,77.26
2022-09-01T05:43:47.888Z,76.12
2022-09-01T05:44:46.187Z,75.68
2022-09-01T05:46:05.632Z,75.20
2022-09-01T05:46:49.194Z,74.29
2022-09-01T05:47:46.983Z,73.65
2022-09-01T05:48:49.155Z,73.01
2022-09-01T05:49:47.458Z,72.67
2022-09-01T05:50:47.678Z,71.73
2022-09-01T05:51:50.890Z,70.79
2022-09-01T05:52:49.287Z,69.96
2022-09-01T05:53:48.566Z,69.72
2022-09-01T05:54:49.830Z,68.51
2022-09-01T05:55:50.996Z,68.62
2022-09-01T05:56:50.932Z,68.71
2022-09-01T05:57:51.658Z,68.28
2022-09-01T05:59:51.190Z,67.35
2022-09-01T06:00:52.382Z,67.44
2022-09-01T06:01:52.359Z,67.78
2022-09-01T06:02:53.252Z,68.91
2022-09-01T06:03:51.353Z,69.12
2022-09-01T06:04:51.580Z,69.29
2022-09-01T06:05:53.766Z,68.78
2022-09-01T06:07:06.685Z,69.38
2022-09-01T06:07:55.273Z,68.85
2022-09-01T06:08:52.741Z,68.35
2022-09-01T06:09:52.975Z,67.91
2022-09-01T06:10:55.149Z,67.71
2022-09-01T06:11:54.934Z,67.82
2022-09-01T06:12:55.674Z,67.68
2022-09-01T06:13:55.436Z,66.71
2022-09-01T06:14:54.231Z,65.58
2022-09-01T06:15:57.921Z,65.28
2022-09-01T06:16:55.519Z,65.78
2022-09-01T06:17:56.904Z,65.28
2022-09-01T06:18:55.208Z,65.78
2022-09-01T06:19:55.545Z,65.68
2022-09-01T06:20:57.723Z,65.75
2022-09-01T06:21:56.840Z,65.55
2022-09-01T06:22:58.222Z,65.22
2022-09-01T06:23:56.530Z,65.12
2022-09-01T06:25:01.055Z,65.28
2022-09-01T06:25:58.074Z,64.39
2022-09-01T06:27:00.650Z,64.39
2022-09-01T06:27:57.476Z,65.22
2022-09-01T06:28:59.667Z,65.62
2022-09-01T06:29:57.991Z,66.22
2022-09-01T06:30:59.191Z,67.22
2022-09-01T06:32:01.332Z,66.39
2022-09-01T06:32:58.770Z,66.25
2022-09-01T06:34:02.089Z,65.02
2022-09-01T06:35:02.630Z,65.02
2022-09-01T06:36:02.791Z,64.56
2022-09-01T06:37:01.494Z,64.03
2022-09-01T06:38:00.179Z,63.83
2022-09-01T06:39:04.323Z,64.16
2022-09-01T06:40:01.555Z,64.89
2022-09-01T06:41:04.337Z,65.86
2022-09-01T06:42:05.777Z,66.99
2022-09-01T06:43:02.502Z,66.89
2022-09-01T06:44:04.713Z,66.55
2022-09-01T06:45:03.898Z,66.39
2022-09-01T06:46:04.078Z,67.52
2022-09-01T06:47:04.351Z,68.55
2022-09-01T06:48:03.808Z,68.52
2022-09-01T06:49:07.056Z,67.59
2022-09-01T06:50:04.384Z,67.05
2022-09-01T06:51:22.014Z,65.62
2022-09-01T06:52:04.893Z,66.29
2022-09-01T06:54:10.839Z,64.40
2022-09-01T06:55:07.786Z,62.90
2022-09-01T06:56:08.296Z,64.00
2022-09-01T06:58:07.465Z,62.90
2022-09-01T06:59:08.905Z,63.07
2022-09-01T07:00:07.008Z,62.45
2022-09-01T07:01:07.171Z,61.41
2022-09-01T07:02:11.446Z,60.99
2022-09-01T07:03:07.850Z,61.16
2022-09-01T07:04:12.722Z,60.86
2022-09-01T07:05:58.370Z,60.46
2022-09-01T07:06:09.680Z,60.13
2022-09-01T07:08:09.272Z,60.06
2022-09-01T07:09:38.870Z,61.06
2022-09-01T07:10:20.972Z,60.93
2022-09-01T07:12:25.490Z,59.18
2022-09-01T07:13:10.671Z,58.84
2022-09-01T07:14:15.698Z,60.76
2022-09-01T07:17:27.128Z,60.06
2022-09-01T07:18:11.980Z,60.63
2022-09-01T07:19:12.097Z,60.53
2022-09-01T07:20:28.881Z,60.33
2022-09-01T07:22:35.797Z,60.43
2022-09-01T07:23:13.339Z,60.69
2022-09-01T07:24:14.113Z,62.29
2022-09-01T07:25:16.698Z,61.36
2022-09-01T07:26:24.684Z,60.43
2022-09-01T07:27:16.317Z,60.60
2022-09-01T07:28:15.935Z,59.38
2022-09-01T07:29:17.026Z,59.05
2022-09-01T07:30:14.220Z,58.45
2022-09-01T07:35:16.532Z,57.83
2022-09-01T07:36:25.607Z,59.35
2022-09-01T07:43:18.819Z,58.06
2022-09-01T07:44:19.856Z,58.71
2022-09-01T07:45:28.202Z,59.91
2022-09-01T07:46:37.330Z,60.97
2022-09-01T07:47:52.342Z,59.55
2022-09-01T07:48:36.633Z,58.13
2022-09-01T07:50:08.481Z,58.36
2022-09-01T07:51:38.498Z,58.53
2022-09-01T07:52:22.607Z,57.60
2022-09-01T07:53:20.627Z,57.86
2022-09-01T07:54:22.650Z,58.61
2022-09-01T07:55:21.099Z,59.44
2022-09-01T07:56:21.344Z,60.93
2022-09-01T07:57:21.583Z,60.90
2022-09-01T07:58:23.764Z,61.04
2022-09-01T07:59:23.976Z,58.62
2022-09-01T08:00:22.421Z,58.41
2022-09-01T08:01:24.643Z,59.83
2022-09-01T08:02:22.961Z,58.48
2022-09-01T08:03:23.396Z,58.98
2022-09-01T08:04:23.507Z,58.61
2022-09-01T08:05:23.757Z,60.66
2022-09-01T08:06:26.050Z,60.73
2022-09-01T08:07:25.154Z,58.88
2022-09-01T08:08:28.998Z,59.45
2022-09-01T08:09:37.645Z,58.09
2022-09-01T08:10:26.096Z,59.65
2022-09-01T08:11:58.204Z,57.64
2022-09-01T08:12:29.588Z,58.06
2022-09-01T08:13:26.047Z,57.06
2022-09-01T08:14:33.725Z,58.23
2022-09-01T08:16:06.696Z,57.18
2022-09-01T08:16:39.366Z,56.09
2022-09-01T08:17:51.168Z,57.39
2022-09-01T08:18:48.120Z,59.14
2022-09-01T08:19:28.537Z,58.78
2022-09-01T08:20:27.837Z,59.47
2022-09-01T08:21:28.092Z,59.66
2022-09-01T08:22:28.330Z,60.00
2022-09-01T08:23:32.483Z,59.74
2022-09-01T08:24:28.823Z,59.34
2022-09-01T08:25:29.060Z,60.16
2022-09-01T08:26:29.303Z,60.59
2022-09-01T08:27:29.551Z,60.89
2022-09-01T08:28:32.040Z,60.13
2022-09-01T08:29:30.682Z,59.38
2022-09-01T08:30:30.345Z,57.14
2022-09-01T08:31:31.091Z,57.17
2022-09-01T08:32:30.810Z,57.39
2022-09-01T08:33:34.988Z,58.84
2022-09-01T08:34:33.227Z,60.36
2022-09-01T08:35:31.675Z,63.23
2022-09-01T08:36:31.914Z,65.72
2022-09-01T08:37:34.108Z,65.25
2022-09-01T08:38:35.498Z,63.93
2022-09-01T08:39:32.695Z,64.49
2022-09-01T08:40:32.981Z,66.75
2022-09-01T08:41:35.031Z,67.69
2022-09-01T08:42:34.440Z,67.59
2022-09-01T08:43:36.809Z,68.73
2022-09-01T08:44:35.807Z,68.73
2022-09-01T08:45:34.241Z,68.73
2022-09-01T08:46:34.535Z,67.86
2022-09-01T08:47:49.220Z,66.89
2022-09-01T08:49:23.719Z,66.19
2022-09-01T08:49:43.058Z,65.86
2022-09-01T08:50:36.545Z,65.56
2022-09-01T08:51:37.733Z,66.29
2022-09-01T08:52:36.162Z,64.70
2022-09-01T08:53:40.343Z,64.20
2022-09-01T08:54:36.670Z,63.76
2022-09-01T08:55:36.920Z,65.89
2022-09-01T08:56:39.098Z,65.59
2022-09-01T08:57:37.416Z,67.22
2022-09-01T08:58:39.653Z,66.96
2022-09-01T08:59:38.999Z,67.96
2022-09-01T09:00:38.172Z,68.39
2022-09-01T09:01:40.405Z,69.26
2022-09-01T09:02:40.613Z,69.42
2022-09-01T09:03:42.132Z,69.46
2022-09-01T09:04:40.167Z,70.06
2022-09-01T09:05:40.324Z,69.12
2022-09-01T09:06:39.756Z,68.62
2022-09-01T09:07:40.902Z,69.66
2022-09-01T09:08:44.279Z,70.39
2022-09-01T09:09:40.605Z,71.09
2022-09-01T09:10:44.749Z,70.76
2022-09-01T09:11:42.058Z,69.86
2022-09-01T09:12:51.426Z,69.93
2022-09-01T09:13:44.678Z,69.02
2022-09-01T09:14:42.787Z,68.52
2022-09-01T09:15:43.276Z,68.62
2022-09-01T09:16:43.363Z,68.85
2022-09-01T09:17:44.720Z,68.85
2022-09-01T09:19:01.847Z,69.02
2022-09-01T09:19:44.311Z,68.62
2022-09-01T09:20:44.519Z,67.69
2022-09-01T09:21:44.713Z,66.62
2022-09-01T09:22:45.091Z,67.22
2022-09-01T09:23:47.491Z,67.69
2022-09-01T09:24:45.678Z,67.69
2022-09-01T09:25:45.828Z,67.89
2022-09-01T09:26:45.295Z,66.89
2022-09-01T09:27:47.440Z,66.96
2022-09-01T09:28:46.564Z,66.32
2022-09-01T09:29:46.001Z,66.13
2022-09-01T09:30:46.297Z,66.49
2022-09-01T09:31:46.486Z,65.99
2022-09-01T09:33:19.957Z,66.49
2022-09-01T09:33:52.679Z,64.19
2022-09-01T09:34:47.221Z,63.79
2022-09-01T09:35:49.415Z,61.82
2022-09-01T09:36:54.000Z,63.08
2022-09-01T09:37:50.922Z,63.71
2022-09-01T09:38:51.237Z,64.12
2022-09-01T09:39:50.319Z,65.12
2022-09-01T09:41:13.878Z,60.03
2022-09-01T09:41:50.659Z,61.44
2022-09-01T09:42:53.227Z,61.54
2022-09-01T09:43:51.738Z,62.31
2022-09-01T09:44:49.925Z,64.12
2022-09-01T09:45:52.157Z,63.98
2022-09-01T09:46:52.305Z,62.45
2022-09-01T09:47:50.732Z,63.25
2022-09-01T09:48:52.959Z,63.65
2022-09-01T09:49:53.198Z,62.22
2022-09-01T09:50:53.432Z,62.42
2022-09-01T09:51:51.861Z,61.62
2022-09-01T09:52:53.975Z,61.62
2022-09-01T09:53:54.444Z,61.45
2022-09-01T09:54:54.619Z,62.05
2022-09-01T09:55:56.240Z,61.65
2022-09-01T09:56:55.009Z,61.55
2022-09-01T09:57:55.206Z,61.85
2022-09-01T09:58:55.751Z,62.32
2022-09-01T10:00:00.669Z,61.82
2022-09-01T10:00:57.235Z,61.99
2022-09-01T10:01:54.558Z,62.19
2022-09-01T10:02:56.743Z,61.46
2022-09-01T10:03:56.570Z,60.14
2022-09-01T10:04:56.022Z,60.96
2022-09-01T10:05:57.548Z,61.24
2022-09-01T10:06:55.979Z,60.44
2022-09-01T10:07:56.265Z,61.73
2022-09-01T10:09:00.434Z,61.60
2022-09-01T10:09:56.730Z,59.70
2022-09-01T10:10:58.997Z,59.23
2022-09-01T10:11:57.265Z,60.33
2022-09-01T10:12:57.540Z,59.83
2022-09-01T10:14:00.677Z,60.77
2022-09-01T10:15:00.534Z,61.24
2022-09-01T10:16:00.111Z,59.56
2022-09-01T10:17:00.709Z,60.57
2022-09-01T10:19:00.212Z,61.57
2022-09-01T10:20:01.406Z,60.16
2022-09-01T10:20:59.844Z,60.14
2022-09-01T10:22:02.034Z,60.36
2022-09-01T10:23:03.801Z,60.99
2022-09-01T10:25:03.321Z,61.36
2022-09-01T10:26:01.316Z,61.46
2022-09-01T10:27:03.956Z,62.26
2022-09-01T10:28:03.410Z,60.66
2022-09-01T10:29:04.131Z,60.19
2022-09-01T10:30:20.411Z,60.72
2022-09-01T10:31:03.743Z,61.45
2022-09-01T10:32:30.765Z,62.05
2022-09-01T10:33:15.581Z,61.95
2022-09-01T10:34:06.516Z,62.32
2022-09-01T10:35:05.701Z,61.92
2022-09-01T10:36:06.987Z,61.02
2022-09-01T10:37:04.411Z,61.19
2022-09-01T10:38:06.562Z,60.22
2022-09-01T10:39:09.109Z,61.25
2022-09-01T10:40:07.121Z,62.41
2022-09-01T10:41:05.590Z,62.51
2022-09-01T10:42:07.727Z,63.54
2022-09-01T10:43:12.459Z,63.71
2022-09-01T10:44:06.357Z,63.08
2022-09-01T10:45:08.550Z,62.75
2022-09-01T10:46:09.241Z,62.12
2022-09-01T10:47:13.918Z,61.82
2022-09-01T10:48:08.552Z,62.42
2022-09-01T10:49:08.097Z,62.55
2022-09-01T10:50:10.365Z,63.39
2022-09-01T10:51:08.269Z,63.06
2022-09-01T10:52:13.950Z,62.55
2022-09-01T10:53:10.632Z,62.85
2022-09-01T10:54:09.067Z,62.62
2022-09-01T10:55:11.224Z,63.12
2022-09-01T10:56:20.074Z,61.79
2022-09-01T10:57:12.716Z,60.99
2022-09-01T10:59:31.137Z,60.89
2022-09-01T11:00:34.906Z,59.44
2022-09-01T11:01:13.437Z,59.04
2022-09-01T11:02:34.752Z,59.99
2022-09-01T11:04:12.725Z,60.38
2022-09-01T11:05:11.927Z,60.85
2022-09-01T11:06:13.149Z,60.02
2022-09-01T11:07:12.671Z,59.62
2022-09-01T11:08:16.042Z,60.52
2022-09-01T11:09:12.987Z,61.52
2022-09-01T11:10:31.212Z,61.69
2022-09-01T11:11:16.441Z,59.66
2022-09-01T11:12:14.561Z,58.76
2022-09-01T11:13:15.968Z,59.47
2022-09-01T11:14:15.139Z,60.22
2022-09-01T11:15:16.995Z,61.05
2022-09-01T11:16:15.815Z,61.35
2022-09-01T11:17:15.930Z,60.65
2022-09-01T11:18:18.767Z,60.55
2022-09-01T11:19:16.450Z,61.15
2022-09-01T11:20:18.087Z,60.55
2022-09-01T11:21:16.234Z,60.35
2022-09-01T11:22:16.495Z,60.62
2022-09-01T11:23:20.305Z,60.02
2022-09-01T11:24:17.070Z,59.92
2022-09-01T11:25:19.224Z,58.67
2022-09-01T11:26:20.040Z,57.21
2022-09-01T11:27:19.016Z,56.68
2022-09-01T11:28:20.339Z,55.33
2022-09-01T11:29:19.587Z,54.19
2022-09-01T11:30:22.197Z,52.42
2022-09-01T11:31:20.239Z,51.05
2022-09-01T11:32:22.447Z,50.63
2022-09-01T11:33:21.626Z,49.07
2022-09-01T11:34:19.935Z,50.93
2022-09-01T11:35:21.128Z,49.19
2022-09-01T11:36:22.402Z,51.25
2022-09-01T11:37:21.638Z,50.95
2022-09-01T11:38:22.874Z,51.35
2022-09-01T11:39:21.181Z,51.57
2022-09-01T11:40:21.481Z,54.36
2022-09-01T11:41:21.741Z,52.47
2022-09-01T11:42:23.949Z,49.99
2022-09-01T11:43:24.171Z,49.22
2022-09-01T11:44:23.535Z,47.41
2022-09-01T11:45:23.683Z,48.42
2022-09-01T11:46:25.041Z,50.48
2022-09-01T11:47:24.880Z,51.05
2022-09-01T11:48:25.689Z,51.05
2022-09-01T11:49:24.000Z,52.69
2022-09-01T11:50:24.244Z,54.61
2022-09-01T11:51:24.489Z,54.11
2022-09-01T11:52:25.568Z,54.16
2022-09-01T11:53:25.943Z,55.02
2022-09-01T11:54:27.132Z,56.46
2022-09-01T11:55:27.322Z,56.64
2022-09-01T11:56:27.548Z,56.27
2022-09-01T11:57:28.936Z,56.64
2022-09-01T11:58:27.972Z,56.74
2022-09-01T11:59:28.636Z,56.67
2022-09-01T12:00:28.791Z,57.24
2022-09-01T12:01:28.956Z,56.64
2022-09-01T12:02:30.071Z,56.54
2022-09-01T12:03:29.459Z,56.54
2022-09-01T12:04:29.012Z,55.94
2022-09-01T12:05:30.205Z,55.81
2022-09-01T12:06:30.388Z,55.62
2022-09-01T12:07:29.761Z,56.01
2022-09-01T12:08:31.133Z,55.58
2022-09-01T12:09:29.446Z,54.89
2022-09-01T12:10:29.690Z,54.29
2022-09-01T12:11:31.879Z,53.89
2022-09-01T12:12:33.143Z,53.42
2022-09-01T12:13:32.379Z,54.11
2022-09-01T12:14:48.780Z,54.02
2022-09-01T12:15:32.051Z,54.61
2022-09-01T12:16:31.393Z,53.74
2022-09-01T12:17:35.512Z,54.14
2022-09-01T12:18:33.731Z,54.34
2022-09-01T12:19:32.188Z,55.32
2022-09-01T12:20:33.379Z,54.86
2022-09-01T12:21:34.203Z,53.54
2022-09-01T12:22:33.039Z,52.02
2022-09-01T12:23:35.228Z,51.10
2022-09-01T12:24:33.538Z,52.02
2022-09-01T12:25:37.694Z,53.06
2022-09-01T12:26:35.896Z,52.24
2022-09-01T12:27:34.348Z,50.48
2022-09-01T12:28:36.518Z,50.32
2022-09-01T12:29:34.833Z,52.34
2022-09-01T12:30:39.002Z,51.92
2022-09-01T12:31:37.269Z,51.27
2022-09-01T12:32:35.561Z,53.42
2022-09-01T12:33:36.025Z,52.67
2022-09-01T12:34:37.985Z,51.25
2022-09-01T12:35:38.339Z,51.77
2022-09-01T12:36:38.407Z,52.47
2022-09-01T12:37:36.946Z,53.17
2022-09-01T12:38:37.198Z,53.04
2022-09-01T12:39:39.405Z,51.12
2022-09-01T12:40:38.674Z,50.15
2022-09-01T12:41:39.939Z,48.27
2022-09-01T12:42:44.715Z,46.81
2022-09-01T12:43:38.596Z,45.45
2022-09-01T12:44:39.542Z,43.75
2022-09-01T12:45:41.081Z,43.89
2022-09-01T12:46:39.483Z,45.42
2022-09-01T12:47:41.669Z,46.02
2022-09-01T12:48:39.987Z,45.25
2022-09-01T12:49:45.225Z,45.37
2022-09-01T12:50:43.657Z,45.89
2022-09-01T12:51:43.812Z,45.49
2022-09-01T12:52:42.759Z,46.03
2022-09-01T12:53:42.565Z,47.05
2022-09-01T12:54:41.659Z,47.66
2022-09-01T12:55:51.010Z,48.19
2022-09-01T12:56:45.054Z,47.54
2022-09-01T12:57:42.505Z,47.20
2022-09-01T12:58:42.754Z,46.86
2022-09-01T12:59:43.977Z,47.67
2022-09-01T13:00:45.229Z,48.13
2022-09-01T13:01:45.543Z,47.85
2022-09-01T13:02:43.901Z,47.83
2022-09-01T13:03:44.071Z,46.98
2022-09-01T13:04:45.288Z,46.86
2022-09-01T13:05:44.591Z,45.79
2022-09-01T13:06:46.783Z,47.47
2022-09-01T13:07:45.086Z,47.30
2022-09-01T13:08:46.238Z,46.41
2022-09-01T13:09:47.052Z,46.88
2022-09-01T13:10:47.777Z,47.17
2022-09-01T13:12:06.542Z,47.28
2022-09-01T13:12:47.371Z,46.95
2022-09-01T13:13:46.673Z,46.76
2022-09-01T13:14:47.920Z,46.73
2022-09-01T13:15:47.212Z,45.52
2022-09-01T13:16:50.791Z,46.36
2022-09-01T13:17:47.748Z,45.89
2022-09-01T13:19:50.242Z,46.90